Time;durP1;ratioP1;P1;durP2;ratioP2;P2;SDS_P1;SDS_P2;PMS_P1;PMS_P2;Temp;Humidity;BMP_temperature;BMP_pressure;BME280_temperature;BME280_humidity;BME280_pressure;Samples;Min_cycle;Max_cycle;Signal;HPM_P1;HPM_P2
2022/07/18 00:00:28;;;;;;;20.65;10.60;;;;;;;23.30;57.00;100328.53;4971664;28;20470;-70
2022/07/18 00:02:55;;;;;;;21.73;10.38;;;;;;;23.30;57.10;100325.66;4994510;28;20078;-70
2022/07/18 00:05:22;;;;;;;17.00;8.90;;;;;;;23.06;56.68;100297.44;4985983;28;20144;-71
2022/07/18 00:07:49;;;;;;;18.83;9.82;;;;;;;23.05;56.71;100304.34;4988670;28;20470;-70
2022/07/18 00:10:16;;;;;;;17.83;8.73;;;;;;;23.01;57.14;100287.19;4991657;28;20050;-70
2022/07/18 00:12:42;;;;;;;16.00;9.10;;;;;;;23.16;57.18;100308.25;4984747;28;20147;-71
2022/07/18 00:15:10;;;;;;;19.27;9.77;;;;;;;23.29;57.12;100324.03;4984010;28;20128;-71
2022/07/18 00:17:37;;;;;;;20.88;10.20;;;;;;;23.17;57.24;100302.19;4972012;28;20082;-71
2022/07/18 00:20:06;;;;;;;15.35;8.75;;;;;;;23.24;57.35;100307.22;4977394;28;20153;-70
2022/07/18 00:22:33;;;;;;;20.15;10.15;;;;;;;23.22;56.89;100314.50;4987921;28;20050;-70
2022/07/18 00:25:00;;;;;;;14.25;8.38;;;;;;;23.26;57.14;100315.41;4982265;28;20072;-71
2022/07/18 00:27:27;;;;;;;16.75;10.15;;;;;;;23.21;56.89;100295.75;4986303;28;20116;-71
2022/07/18 00:29:54;;;;;;;19.00;9.10;;;;;;;23.37;56.69;100317.28;4988393;28;20138;-71
2022/07/18 00:32:21;;;;;;;19.08;9.77;;;;;;;23.20;57.24;100296.94;4991031;28;20197;-71
2022/07/18 00:34:48;;;;;;;16.42;9.73;;;;;;;23.17;56.90;100301.34;4988744;28;20073;-71
2022/07/18 00:37:15;;;;;;;17.45;8.98;;;;;;;23.19;56.91;100301.81;4990325;28;20138;-71
2022/07/18 00:39:41;;;;;;;17.30;9.27;;;;;;;23.01;57.08;100286.31;4989821;28;20129;-71
2022/07/18 00:42:08;;;;;;;17.70;10.02;;;;;;;23.02;57.61;100305.09;5003034;28;20133;-69
2022/07/18 00:44:36;;;;;;;17.00;11.40;;;;;;;23.03;57.66;100301.84;4994324;28;20104;-71
2022/07/18 00:47:03;;;;;;;16.30;10.40;;;;;;;23.04;57.46;100292.13;4991476;28;20121;-71
2022/07/18 00:49:31;;;;;;;21.25;9.95;;;;;;;23.12;57.36;100307.34;4984232;28;20227;-71
2022/07/18 00:51:57;;;;;;;19.40;11.02;;;;;;;23.15;57.71;100312.31;4985247;28;20141;-70
2022/07/18 00:54:25;;;;;;;21.65;11.57;;;;;;;22.84;57.73;100259.91;4979759;28;20058;-71
2022/07/18 00:56:52;;;;;;;22.58;11.05;;;;;;;23.04;57.80;100288.44;4987697;28;20054;-71
2022/07/18 00:59:20;;;;;;;19.55;10.40;;;;;;;23.04;57.57;100280.75;4985454;28;20058;-71
2022/07/18 01:01:47;;;;;;;18.00;9.50;;;;;;;23.07;57.42;100293.38;4984522;28;20137;-71
2022/07/18 01:04:22;;;;;;;17.50;11.05;;;;;;;23.07;57.72;100302.75;4990257;28;20061;-70
2022/07/18 01:06:50;;;;;;;20.27;11.15;;;;;;;22.79;57.92;100243.09;4984783;28;20500;-70
2022/07/18 01:09:18;;;;;;;23.58;11.73;;;;;;;23.07;57.34;100270.59;5001444;28;20081;-71
2022/07/18 01:11:47;;;;;;;19.88;10.88;;;;;;;23.00;57.71;100274.13;4981709;28;20525;-71
2022/07/18 01:14:15;;;;;;;19.55;11.20;;;;;;;23.06;57.76;100278.31;4991874;28;20129;-71
2022/07/18 01:16:42;;;;;;;22.10;11.52;;;;;;;22.97;57.78;100265.50;4988289;28;20139;-71
2022/07/18 01:19:10;;;;;;;22.52;11.77;;;;;;;23.15;57.99;100287.50;4970536;28;20086;-71
2022/07/18 01:21:38;;;;;;;19.30;10.88;;;;;;;23.19;57.48;100287.56;4983937;28;20085;-71
2022/07/18 01:24:05;;;;;;;16.23;11.07;;;;;;;23.16;57.60;100297.69;4987539;28;20058;-71
2022/07/18 01:26:33;;;;;;;22.13;10.98;;;;;;;23.02;57.91;100271.72;4983667;28;20137;-72
2022/07/18 01:29:00;;;;;;;20.23;9.75;;;;;;;23.09;57.80;100279.63;4987283;28;20058;-71
2022/07/18 01:31:28;;;;;;;18.35;9.90;;;;;;;23.09;57.97;100288.16;4986637;28;20555;-71
2022/07/18 01:33:55;;;;;;;18.88;10.85;;;;;;;23.06;57.93;100294.59;4991433;28;20138;-71
2022/07/18 01:36:22;;;;;;;22.70;11.52;;;;;;;23.01;58.29;100277.78;4984755;28;20078;-71
2022/07/18 01:38:52;;;;;;;16.98;10.80;;;;;;;23.08;58.41;100277.97;4977305;28;20145;-71
2022/07/18 01:41:18;;;;;;;19.73;11.52;;;;;;;23.11;58.39;100272.34;4989134;28;20085;-71
2022/07/18 01:43:45;;;;;;;23.27;12.65;;;;;;;23.01;58.28;100246.47;4988060;28;20129;-71
2022/07/18 01:46:12;;;;;;;23.08;12.32;;;;;;;23.24;58.24;100278.72;4983770;28;20133;-71
2022/07/18 01:48:39;;;;;;;20.33;10.32;;;;;;;23.26;58.41;100276.34;4979049;28;20770;-72
2022/07/18 01:51:09;;;;;;;21.08;11.02;;;;;;;23.14;58.34;100262.22;4980599;28;20153;-71
2022/07/18 01:53:40;;;;;;;;;;;;;;;23.07;58.39;100274.28;4984501;28;20050;-71
2022/07/18 01:56:07;;;;;;;18.02;9.43;;;;;;;23.06;58.29;100261.25;5001607;28;20349;-71
2022/07/18 01:58:34;;;;;;;23.20;10.25;;;;;;;22.92;58.21;100233.28;4982955;28;20081;-71
2022/07/18 02:01:02;;;;;;;24.92;10.32;;;;;;;23.03;58.50;100249.78;5003218;28;20051;-70
2022/07/18 02:03:29;;;;;;;16.40;9.50;;;;;;;23.18;58.70;100283.09;4985874;28;20100;-70
2022/07/18 02:05:56;;;;;;;15.88;9.25;;;;;;;23.02;58.46;100251.78;4986428;28;20078;-70
2022/07/18 02:08:23;;;;;;;17.38;9.40;;;;;;;23.09;58.77;100268.22;4984812;28;20138;-70
2022/07/18 02:10:50;;;;;;;13.50;7.97;;;;;;;23.24;58.57;100289.31;4986293;28;20502;-72
2022/07/18 02:13:19;;;;;;;15.05;7.80;;;;;;;23.14;58.65;100274.44;4989110;28;20082;-72
2022/07/18 02:15:47;;;;;;;;;;;;;;;23.23;58.39;100287.66;4985240;28;20050;-72
2022/07/18 02:18:14;;;;;;;9.60;6.82;;;;;;;23.20;58.41;100257.88;4984914;28;19922;-72
2022/07/18 02:20:41;;;;;;;12.10;6.25;;;;;;;23.32;58.12;100279.72;4977407;28;20078;-72
2022/07/18 02:23:07;;;;;;;15.32;6.70;;;;;;;23.27;58.40;100263.72;4981722;28;20125;-72
2022/07/18 02:25:35;;;;;;;14.95;5.93;;;;;;;23.40;58.28;100259.53;4979323;28;20141;-72
2022/07/18 02:28:02;;;;;;;12.25;5.95;;;;;;;23.45;58.19;100277.53;4987584;28;20181;-72
2022/07/18 02:30:29;;;;;;;8.73;5.45;;;;;;;23.37;57.91;100276.56;4981108;28;20125;-69
2022/07/18 02:32:56;;;;;;;10.75;5.40;;;;;;;23.33;58.23;100282.19;4985238;28;20050;-71
2022/07/18 02:35:23;;;;;;;16.00;8.95;;;;;;;23.32;58.21;100280.56;4987447;28;20146;-71
2022/07/18 02:37:52;;;;;;;36.42;19.80;;;;;;;23.46;57.85;100282.06;4967791;28;20133;-71
2022/07/18 02:40:19;;;;;;;19.35;8.40;;;;;;;23.33;57.91;100253.69;4984967;28;20089;-71
2022/07/18 02:42:46;;;;;;;13.23;5.70;;;;;;;23.43;58.19;100277.94;4990141;28;20085;-71
2022/07/18 02:45:13;;;;;;;10.02;5.93;;;;;;;23.40;57.84;100275.81;4984370;28;20133;-70
2022/07/18 02:47:40;;;;;;;13.30;5.57;;;;;;;23.40;58.05;100270.13;4988609;28;20078;-70
2022/07/18 02:50:08;;;;;;;11.68;4.97;;;;;;;23.23;58.05;100247.78;4987096;28;20085;-71
2022/07/18 02:52:35;;;;;;;13.05;4.88;;;;;;;23.38;57.95;100279.06;4983427;28;20093;-71
2022/07/18 02:55:02;;;;;;;9.63;4.95;;;;;;;23.42;57.68;100273.44;4983799;28;20164;-71
2022/07/18 02:57:29;;;;;;;9.07;4.95;;;;;;;23.45;58.06;100277.53;4989257;28;20125;-70
2022/07/18 02:59:56;;;;;;;10.07;4.53;;;;;;;23.45;57.53;100266.13;4988038;28;20515;-71
2022/07/18 03:02:23;;;;;;;14.02;5.95;;;;;;;23.42;57.47;100268.56;4985297;28;20132;-71
2022/07/18 03:04:50;;;;;;;10.20;5.10;;;;;;;23.52;57.81;100291.94;4980987;28;20495;-70
2022/07/18 03:07:17;;;;;;;9.60;5.45;;;;;;;23.53;57.71;100291.56;4980513;28;20137;-71
2022/07/18 03:09:44;;;;;;;14.57;5.68;;;;;;;23.32;58.00;100272.00;4985200;28;20503;-70
2022/07/18 03:12:11;;;;;;;12.80;6.35;;;;;;;23.39;57.99;100291.28;4984481;28;20145;-70
2022/07/18 03:14:38;;;;;;;10.70;5.05;;;;;;;22.94;58.26;100207.28;4988049;28;20086;-70
2022/07/18 03:17:05;;;;;;;9.93;5.10;;;;;;;23.24;57.85;100252.25;4986364;28;20138;-71
2022/07/18 03:19:32;;;;;;;10.35;4.90;;;;;;;23.39;58.33;100269.31;4984142;28;20050;-71
2022/07/18 03:22:00;;;;;;;9.70;5.20;;;;;;;23.33;58.06;100276.50;4981554;28;20129;-70
2022/07/18 03:24:26;;;;;;;9.13;5.28;;;;;;;23.26;58.46;100261.28;4996834;28;20129;-71
2022/07/18 03:26:54;;;;;;;13.98;5.15;;;;;;;23.38;58.20;100272.50;4982372;28;20491;-70
2022/07/18 03:29:20;;;;;;;6.72;4.35;;;;;;;23.32;57.97;100257.75;4981977;28;20096;-70
2022/07/18 03:31:47;;;;;;;10.15;5.22;;;;;;;23.37;58.16;100257.44;4985331;28;20116;-70
2022/07/18 03:34:14;;;;;;;10.70;5.15;;;;;;;23.44;57.57;100258.78;4988800;28;20129;-71
2022/07/18 03:36:41;;;;;;;7.68;4.72;;;;;;;23.56;57.91;100279.44;4979388;28;20081;-71
2022/07/18 03:39:09;;;;;;;8.00;5.25;;;;;;;23.50;58.22;100254.44;4991396;28;20137;-71
2022/07/18 03:41:37;;;;;;;14.73;4.70;;;;;;;23.61;57.99;100276.25;4984203;28;20078;-71
2022/07/18 03:44:05;;;;;;;10.75;5.20;;;;;;;23.57;57.89;100274.56;4985265;28;20145;-71
2022/07/18 03:46:32;;;;;;;10.93;5.05;;;;;;;23.58;57.54;100279.03;4980726;28;21019;-70
2022/07/18 03:49:00;;;;;;;9.60;5.63;;;;;;;23.46;57.49;100268.63;4988295;28;20411;-69
2022/07/18 03:51:27;;;;;;;10.90;5.15;;;;;;;23.53;57.78;100279.34;4986532;28;20519;-70
2022/07/18 03:53:54;;;;;;;6.90;4.28;;;;;;;23.45;57.72;100271.84;4983119;28;20110;-71
2022/07/18 03:56:21;;;;;;;8.15;4.85;;;;;;;23.31;57.79;100253.22;4979476;28;20074;-71
2022/07/18 03:58:48;;;;;;;8.48;4.95;;;;;;;23.47;57.94;100275.16;4986753;28;20058;-71
2022/07/18 04:01:15;;;;;;;7.35;4.68;;;;;;;23.30;57.74;100260.13;4986262;28;20069;-71
2022/07/18 04:03:42;;;;;;;15.70;5.22;;;;;;;23.47;57.58;100275.97;4990638;28;20073;-70
2022/07/18 04:06:09;;;;;;;9.55;5.47;;;;;;;23.48;57.36;100283.31;4991494;28;20911;-71
2022/07/18 04:08:36;;;;;;;12.65;5.07;;;;;;;23.46;57.46;100273.50;4974379;28;20078;-71
2022/07/18 04:11:03;;;;;;;13.27;4.55;;;;;;;23.34;57.38;100238.25;4988363;28;20142;-70
2022/07/18 04:13:30;;;;;;;10.18;4.70;;;;;;;23.51;57.41;100281.75;4982574;28;20504;-70
2022/07/18 04:15:57;;;;;;;9.90;4.57;;;;;;;23.14;57.30;100226.00;4990301;28;20503;-70
2022/07/18 04:18:24;;;;;;;7.72;4.65;;;;;;;23.35;56.88;100257.00;4991026;28;20538;-70
2022/07/18 04:20:51;;;;;;;9.95;4.25;;;;;;;23.41;57.27;100277.47;4992844;28;20506;-71
2022/07/18 04:23:19;;;;;;;9.32;5.32;;;;;;;23.30;57.35;100267.88;4985161;28;20575;-71
2022/07/18 04:25:45;;;;;;;10.77;5.03;;;;;;;23.00;57.21;100239.13;4984056;28;20050;-72
2022/07/18 04:28:13;;;;;;;9.57;4.97;;;;;;;23.08;56.98;100240.94;4984791;28;20486;-71
2022/07/18 04:30:42;;;;;;;11.55;5.15;;;;;;;23.14;57.51;100268.72;4979153;28;20986;-71
2022/07/18 04:33:10;;;;;;;7.68;4.32;;;;;;;23.03;57.16;100255.47;4985025;28;20047;-71
2022/07/18 04:35:39;;;;;;;6.57;4.95;;;;;;;22.71;57.29;100219.34;4985820;28;20077;-71
2022/07/18 04:38:07;;;;;;;12.13;4.82;;;;;;;22.92;57.63;100267.44;4980357;28;22060;-71
2022/07/18 04:40:34;;;;;;;11.85;4.68;;;;;;;22.80;57.73;100256.13;4986088;28;20593;-71
2022/07/18 04:43:02;;;;;;;9.35;4.82;;;;;;;22.76;57.63;100260.91;4983828;28;20078;-71
2022/07/18 04:45:29;;;;;;;10.05;5.32;;;;;;;22.68;57.77;100265.63;4983124;28;20101;-71
2022/07/18 04:47:56;;;;;;;15.98;5.57;;;;;;;22.63;58.18;100276.44;4989321;28;20046;-71
2022/07/18 04:50:24;;;;;;;13.68;6.90;;;;;;;22.60;57.90;100271.53;4991022;28;20062;-72
2022/07/18 04:52:52;;;;;;;7.95;5.32;;;;;;;22.54;58.27;100270.97;4985129;28;20059;-72
2022/07/18 04:55:21;;;;;;;12.57;4.85;;;;;;;22.48;58.45;100278.94;4986857;28;20137;-71
2022/07/18 04:57:49;;;;;;;12.63;6.55;;;;;;;22.37;57.81;100280.69;4988964;28;20054;-71
2022/07/18 05:00:21;;;;;;;9.45;4.90;;;;;;;22.46;58.30;100284.19;4989862;28;20522;-71
2022/07/18 05:02:50;;;;;;;10.48;5.45;;;;;;;22.40;58.24;100284.84;4989412;28;20140;-72
2022/07/18 05:05:20;;;;;;;6.47;4.22;;;;;;;22.33;58.49;100279.78;4988384;28;20058;-72
2022/07/18 05:07:48;;;;;;;9.60;4.53;;;;;;;22.13;58.43;100263.78;4986016;28;20431;-71
2022/07/18 05:10:18;;;;;;;11.70;5.70;;;;;;;22.11;58.76;100266.97;4982479;28;20074;-71
2022/07/18 05:12:47;;;;;;;7.15;5.07;;;;;;;22.22;58.68;100285.19;4984536;28;20185;-71
2022/07/18 05:15:16;;;;;;;12.20;6.05;;;;;;;22.19;58.63;100291.63;4989583;28;20113;-71
2022/07/18 05:17:44;;;;;;;11.32;6.00;;;;;;;22.17;58.98;100293.16;5004896;28;20156;-71
2022/07/18 05:20:18;;;;;;;12.75;6.32;;;;;;;22.05;58.92;100267.59;4985516;28;20144;-72
2022/07/18 05:22:45;;;;;;;14.68;6.57;;;;;;;22.17;59.50;100294.00;4984380;28;20054;-71
2022/07/18 05:25:13;;;;;;;11.63;7.03;;;;;;;22.01;59.28;100274.03;4985993;28;20146;-71
2022/07/18 05:27:40;;;;;;;9.05;5.45;;;;;;;21.95;59.15;100269.81;4980517;28;20120;-72
2022/07/18 05:30:10;;;;;;;10.45;5.28;;;;;;;21.99;59.13;100293.47;4981442;28;20360;-70
2022/07/18 05:32:38;;;;;;;;;;;;;;;21.75;59.62;100291.59;4986214;28;20113;-71
2022/07/18 05:35:06;;;;;;;9.85;5.90;;;;;;;21.74;59.93;100281.44;4978195;28;20048;-71
2022/07/18 05:37:35;;;;;;;10.77;5.85;;;;;;;21.79;60.05;100305.91;4989679;28;20100;-69
2022/07/18 05:40:07;;;;;;;15.35;5.72;;;;;;;21.82;59.65;100299.50;4980355;28;20042;-68
2022/07/18 05:42:34;;;;;;;10.20;6.07;;;;;;;21.79;59.88;100293.72;4980032;28;20081;-70
2022/07/18 05:45:24;;;;;;;7.93;4.75;;;;;;;21.94;59.86;100299.41;4983366;28;20043;-69
2022/07/18 05:47:53;;;;;;;9.02;5.07;;;;;;;21.70;60.38;100289.00;4984285;28;20050;-68
2022/07/18 05:50:20;;;;;;;9.30;6.70;;;;;;;21.62;60.19;100283.50;4981738;28;20049;-68
2022/07/18 05:52:48;;;;;;;10.43;6.20;;;;;;;21.61;60.63;100302.56;4984243;28;20046;-69
2022/07/18 05:55:15;;;;;;;9.05;5.72;;;;;;;21.66;60.51;100290.09;4984387;28;20077;-69
2022/07/18 05:57:42;;;;;;;12.73;5.68;;;;;;;21.86;60.63;100310.97;4978429;28;20132;-70
2022/07/18 06:00:11;;;;;;;10.80;5.68;;;;;;;22.11;60.02;100305.97;4982596;28;20057;-71
2022/07/18 06:02:38;;;;;;;10.67;5.47;;;;;;;21.97;60.39;100315.75;4984085;28;20086;-71
2022/07/18 06:05:07;;;;;;;10.52;5.85;;;;;;;21.81;60.35;100309.19;4980359;28;20495;-71
2022/07/18 06:07:53;;;;;;;11.93;4.55;;;;;;;21.74;61.28;100326.03;4976793;28;20511;-71
2022/07/18 06:10:21;;;;;;;9.93;5.80;;;;;;;21.49;61.19;100303.41;4981995;28;20050;-70
2022/07/18 06:12:49;;;;;;;11.35;5.32;;;;;;;21.53;61.73;100327.06;4984868;28;20141;-70
2022/07/18 06:15:17;;;;;;;8.63;6.15;;;;;;;21.56;61.24;100324.72;4984561;28;20050;-71
2022/07/18 06:17:44;;;;;;;12.98;5.70;;;;;;;21.76;61.06;100332.22;4978760;28;20488;-71
2022/07/18 06:20:11;;;;;;;13.15;5.47;;;;;;;21.56;60.94;100299.13;4985755;28;20133;-70
2022/07/18 06:22:38;;;;;;;10.05;5.10;;;;;;;21.72;60.94;100339.81;4978876;28;20141;-72
2022/07/18 06:25:06;;;;;;;9.75;5.63;;;;;;;21.94;60.87;100329.88;4979771;28;20704;-70
2022/07/18 06:27:33;;;;;;;12.75;5.47;;;;;;;22.35;60.36;100356.22;4981758;28;20173;-70
2022/07/18 06:30:00;;;;;;;12.25;5.47;;;;;;;22.41;60.20;100332.00;4980715;28;20141;-70
2022/07/18 06:32:27;;;;;;;14.68;4.70;;;;;;;22.42;59.82;100310.88;4979359;28;20074;-71
2022/07/18 06:34:54;;;;;;;7.80;4.82;;;;;;;22.75;59.57;100329.63;4978690;28;20153;-71
2022/07/18 06:37:20;;;;;;;9.05;4.95;;;;;;;22.96;59.18;100360.66;4984368;28;20109;-71
2022/07/18 06:39:47;;;;;;;5.57;4.53;;;;;;;22.90;59.36;100360.09;4983662;28;20086;-72
2022/07/18 06:42:14;;;;;;;10.27;5.50;;;;;;;22.99;59.09;100342.84;4978649;28;20463;-72
2022/07/18 06:44:41;;;;;;;16.75;5.55;;;;;;;23.17;58.93;100364.03;4979325;28;20053;-72
2022/07/18 06:47:08;;;;;;;9.68;5.05;;;;;;;23.12;58.22;100316.72;4977915;28;20164;-72
2022/07/18 06:49:35;;;;;;;7.90;5.32;;;;;;;23.53;58.21;100348.59;4976906;28;20062;-73
2022/07/18 06:52:02;;;;;;;11.75;5.60;;;;;;;23.69;57.41;100361.97;4978492;28;20154;-73
2022/07/18 06:54:33;;;;;;;12.20;6.32;;;;;;;23.82;57.47;100352.88;4975956;28;20065;-73
2022/07/18 06:57:00;;;;;;;8.93;4.50;;;;;;;24.00;56.81;100363.84;4979082;28;20076;-73
2022/07/18 06:59:26;;;;;;;10.85;5.00;;;;;;;23.92;57.08;100342.09;4979771;28;20624;-73
2022/07/18 07:01:53;;;;;;;11.32;5.20;;;;;;;24.46;56.58;100383.94;4984137;28;20093;-73
2022/07/18 07:04:20;;;;;;;14.45;4.47;;;;;;;24.65;56.07;100385.91;4990630;28;20098;-73
2022/07/18 07:06:47;;;;;;;11.63;5.30;;;;;;;24.69;55.54;100384.78;4988777;28;20145;-72
2022/07/18 07:09:14;;;;;;;7.35;4.95;;;;;;;24.62;55.50;100378.13;5005402;28;20074;-73
2022/07/18 07:11:41;;;;;;;9.02;4.10;;;;;;;24.67;55.21;100378.59;4986933;28;20080;-73
2022/07/18 07:14:08;;;;;;;10.48;4.35;;;;;;;24.92;54.91;100372.50;4986492;28;20133;-73
2022/07/18 07:16:35;;;;;;;10.85;4.55;;;;;;;24.98;54.30;100359.56;4990588;28;20053;-72
2022/07/18 07:19:02;;;;;;;6.80;4.80;;;;;;;24.96;54.63;100367.69;4988086;28;20454;-72
2022/07/18 07:21:29;;;;;;;8.00;4.93;;;;;;;25.08;54.55;100367.47;4991972;28;20126;-72
2022/07/18 07:23:56;;;;;;;6.18;4.25;;;;;;;24.99;54.40;100364.03;4987806;28;20399;-75
2022/07/18 07:26:23;;;;;;;9.02;4.50;;;;;;;25.06;53.77;100345.00;4969359;28;20539;-71
2022/07/18 07:28:50;;;;;;;8.10;3.92;;;;;;;25.58;53.44;100364.56;4987942;28;20129;-72
2022/07/18 07:31:17;;;;;;;9.45;3.70;;;;;;;25.82;53.19;100394.75;4990828;28;20171;-72
2022/07/18 07:33:44;;;;;;;10.45;3.90;;;;;;;25.90;52.86;100405.06;4990541;28;20058;-72
2022/07/18 07:36:11;;;;;;;6.65;3.28;;;;;;;25.63;52.57;100379.34;4991149;28;20141;-71
2022/07/18 07:38:38;;;;;;;6.32;3.70;;;;;;;25.26;52.95;100351.47;4988076;28;20047;-72
2022/07/18 07:41:06;;;;;;;8.30;4.28;;;;;;;25.49;52.79;100384.88;4983633;28;20082;-72
2022/07/18 07:43:36;;;;;;;7.20;3.72;;;;;;;25.52;51.91;100396.34;4989099;28;20070;-72
2022/07/18 07:46:03;;;;;;;;;;;;;;;25.53;52.72;100392.28;4994591;28;20046;-71
2022/07/18 07:48:30;;;;;;;9.05;3.75;;;;;;;25.44;52.36;100385.22;4995372;28;19925;-72
2022/07/18 07:50:57;;;;;;;5.00;3.00;;;;;;;25.23;52.39;100383.69;4995120;28;20050;-73
2022/07/18 07:53:25;;;;;;;9.18;4.13;;;;;;;25.25;52.84;100391.84;4994442;28;20404;-72
2022/07/18 07:55:52;;;;;;;10.10;3.33;;;;;;;25.39;52.43;100357.75;4984497;28;20108;-72
2022/07/18 07:58:18;;;;;;;3.63;2.65;;;;;;;25.79;51.87;100341.16;4987742;28;20120;-72
2022/07/18 08:00:46;;;;;;;7.80;2.95;;;;;;;26.46;50.64;100366.88;4995344;28;20086;-73
2022/07/18 08:03:13;;;;;;;5.88;2.10;;;;;;;26.68;50.05;100371.63;4995109;28;20546;-74
2022/07/18 08:05:49;;;;;;;5.63;2.25;;;;;;;26.68;49.78;100367.94;4991637;28;20423;-72
2022/07/18 08:08:17;;;;;;;4.78;2.30;;;;;;;26.65;49.71;100358.09;4989736;28;20134;-73
2022/07/18 08:10:47;;;;;;;5.18;2.45;;;;;;;26.77;49.48;100385.63;4990300;28;20046;-73
2022/07/18 08:13:14;;;;;;;6.82;2.95;;;;;;;27.17;49.58;100378.22;4993018;28;20081;-73
2022/07/18 08:15:42;;;;;;;4.60;2.72;;;;;;;27.83;48.40;100386.88;4995053;28;20054;-72
2022/07/18 08:18:08;;;;;;;4.18;2.47;;;;;;;27.73;47.78;100367.50;4983573;28;20129;-72
2022/07/18 08:20:35;;;;;;;5.63;2.58;;;;;;;27.63;48.04;100355.56;4994821;28;20058;-72
2022/07/18 08:23:08;;;;;;;8.75;2.78;;;;;;;28.06;47.87;100373.00;4993529;28;20397;-73
2022/07/18 08:25:37;;;;;;;5.43;2.25;;;;;;;27.99;47.07;100292.59;4989533;28;20130;-74
2022/07/18 08:28:05;;;;;;;;;;;;;;;28.79;47.74;100374.84;4991680;28;20096;-71
2022/07/18 08:30:33;;;;;;;12.02;2.35;;;;;;;28.30;46.10;100364.88;4983043;28;20045;-72
2022/07/18 08:33:03;;;;;;;7.47;2.70;;;;;;;27.72;46.67;100354.38;4984131;28;20082;-72
2022/07/18 08:35:34;;;;;;;8.43;4.10;;;;;;;27.76;47.18;100370.44;4991156;28;20089;-72
2022/07/18 08:38:02;;;;;;;5.95;2.63;;;;;;;27.88;46.87;100380.72;4992355;28;20142;-72
2022/07/18 08:40:29;;;;;;;9.90;3.22;;;;;;;27.49;46.83;100372.72;4989055;28;20128;-72
2022/07/18 08:42:57;;;;;;;5.13;2.40;;;;;;;26.61;46.69;100334.34;4975578;28;20055;-71
2022/07/18 08:45:45;;;;;;;4.15;2.20;;;;;;;26.62;47.33;100393.25;4982473;28;20046;-72
2022/07/18 08:48:16;;;;;;;8.75;3.00;;;;;;;26.36;47.31;100377.03;4983972;28;20058;-72
2022/07/18 08:51:10;;;;;;;8.40;3.00;;;;;;;26.36;47.29;100376.16;4985384;28;20100;-71
2022/07/18 08:53:46;;;;;;;5.93;2.85;;;;;;;26.26;47.47;100388.31;4985926;28;20058;-72
2022/07/18 08:56:13;;;;;;;7.55;2.35;;;;;;;26.21;47.78;100381.75;4978820;28;20143;-71
2022/07/18 08:58:39;;;;;;;5.03;2.50;;;;;;;26.09;47.88;100396.34;4984473;28;20082;-71
2022/07/18 09:01:12;;;;;;;6.68;2.65;;;;;;;25.62;48.19;100336.84;4980450;28;20169;-70
2022/07/18 09:03:39;;;;;;;8.35;3.05;;;;;;;26.01;47.96;100380.28;4978687;28;20143;-70
2022/07/18 09:06:12;;;;;;;5.80;2.70;;;;;;;26.44;48.13;100366.47;4984383;28;20125;-70
2022/07/18 09:08:56;;;;;;;5.85;2.55;;;;;;;26.97;47.40;100380.47;4983538;28;20166;-69
2022/07/18 09:11:25;;;;;;;5.95;2.78;;;;;;;27.05;47.05;100369.91;4980293;28;20062;-69
2022/07/18 09:14:29;;;;;;;5.82;2.80;;;;;;;27.60;46.96;100387.94;4981084;28;20399;-70
2022/07/18 09:17:11;;;;;;;5.38;2.35;;;;;;;27.92;46.17;100393.03;4975643;28;20515;-70
2022/07/18 09:19:40;;;;;;;6.93;2.65;;;;;;;27.43;46.49;100391.50;4977735;28;20046;-69
2022/07/18 09:22:26;;;;;;;;;;;;;;;27.37;47.27;100393.09;4980438;28;20058;-70
2022/07/18 09:24:55;;;;;;;7.13;2.90;;;;;;;27.95;46.35;100400.84;4976325;28;20366;-68
2022/07/18 09:27:32;;;;;;;6.22;3.05;;;;;;;28.34;45.84;100377.19;4977533;28;20499;-68
2022/07/18 09:30:22;;;;;;;5.03;2.65;;;;;;;28.37;44.89;100404.28;4978056;28;20050;-69
2022/07/18 09:32:53;;;;;;;5.18;2.25;;;;;;;28.20;44.78;100394.38;4981166;28;20050;-70
2022/07/18 09:35:24;;;;;;;5.45;2.72;;;;;;;28.09;44.61;100334.88;4982249;28;20066;-71
2022/07/18 09:38:29;;;;;;;5.55;2.88;;;;;;;28.04;44.07;100360.28;4983957;28;20133;-72
2022/07/18 09:40:57;;;;;;;2.85;1.75;;;;;;;28.28;44.80;100378.81;4981771;28;20128;-78
2022/07/18 09:43:27;;;;;;;7.72;2.42;;;;;;;28.57;43.62;100392.03;4989736;28;20808;-76
2022/07/18 09:45:55;;;;;;;8.00;2.40;;;;;;;28.95;43.10;100386.75;4988540;28;20424;-74
2022/07/18 09:48:25;;;;;;;3.80;2.37;;;;;;;28.76;42.56;100352.69;4993510;28;20053;-73
2022/07/18 09:51:04;;;;;;;4.75;2.70;;;;;;;28.80;42.71;100374.44;4981487;28;20755;-72
2022/07/18 09:53:35;;;;;;;6.35;3.15;;;;;;;29.17;42.72;100398.28;4975835;28;20164;-73
2022/07/18 09:56:13;;;;;;;8.60;3.55;;;;;;;29.29;42.91;100394.97;4984598;28;20140;-72
2022/07/18 09:58:51;;;;;;;9.88;3.35;;;;;;;29.41;42.45;100368.66;4982154;28;20129;-84
2022/07/18 10:01:19;;;;;;;8.55;4.50;;;;;;;29.67;42.59;100381.78;5000242;28;20151;-74
2022/07/18 10:03:48;;;;;;;16.33;5.57;;;;;;;29.64;42.56;100384.66;4990086;28;20084;-78
2022/07/18 10:06:18;;;;;;;12.63;4.97;;;;;;;29.89;42.53;100396.94;4984249;28;20054;-78
2022/07/18 10:08:45;;;;;;;9.88;4.43;;;;;;;30.00;42.18;100408.41;4983314;28;20065;-80
2022/07/18 10:11:12;;;;;;;10.32;5.20;;;;;;;30.24;41.85;100418.19;4983048;28;20133;-78
2022/07/18 10:13:39;;;;;;;7.97;4.50;;;;;;;30.18;42.16;100411.22;4981078;28;20053;-75
2022/07/18 10:16:06;;;;;;;8.63;4.75;;;;;;;30.43;41.92;100417.69;4980202;28;20061;-75
2022/07/18 10:18:36;;;;;;;8.85;4.70;;;;;;;30.58;41.77;100417.63;4983909;28;20050;-74
2022/07/18 10:21:02;;;;;;;;;;;;;;;30.59;42.35;100422.13;4977434;28;20487;-74
2022/07/18 10:23:34;;;;;;;13.13;4.80;;;;;;;30.69;41.20;100424.13;4978433;28;20733;-73
2022/07/18 10:26:21;;;;;;;7.45;3.80;;;;;;;30.72;41.02;100420.41;4979247;28;20145;-73
2022/07/18 10:28:55;;;;;;;7.85;3.97;;;;;;;30.79;40.42;100416.69;4981509;28;20051;-74
2022/07/18 10:31:23;;;;;;;8.02;3.60;;;;;;;30.92;40.42;100440.88;4981371;28;20073;-72
2022/07/18 10:33:52;;;;;;;8.63;4.20;;;;;;;30.79;40.43;100408.03;4973934;28;20065;-73
2022/07/18 10:36:22;;;;;;;9.25;3.95;;;;;;;30.75;39.90;100422.44;4984225;28;20050;-74
2022/07/18 10:39:08;;;;;;;6.25;4.13;;;;;;;30.61;41.14;100431.19;4984105;28;20049;-74
2022/07/18 10:41:38;;;;;;;9.75;3.45;;;;;;;31.05;40.05;100436.25;4984273;28;20058;-73
2022/07/18 10:44:27;;;;;;;5.10;2.58;;;;;;;30.84;40.26;100437.25;4978908;28;20550;-73
2022/07/18 10:47:03;;;;;;;;;;;;;;;30.53;41.94;100438.22;4983116;28;20525;-73
2022/07/18 10:49:48;;;;;;;6.57;3.15;;;;;;;30.90;40.79;100428.94;4985772;28;19922;-72
2022/07/18 10:52:27;;;;;;;3.97;2.60;;;;;;;30.83;40.81;100429.00;4989908;28;20145;-74
2022/07/18 10:55:03;;;;;;;8.18;2.80;;;;;;;30.57;40.67;100421.75;4992798;28;20081;-73
2022/07/18 10:57:49;;;;;;;7.78;2.83;;;;;;;30.54;40.85;100422.59;4984283;28;20054;-73
2022/07/18 11:00:25;;;;;;;4.10;2.03;;;;;;;30.60;40.18;100423.75;4981344;28;20082;-73
2022/07/18 11:03:13;;;;;;;4.07;2.30;;;;;;;30.62;40.13;100418.41;4985664;28;20086;-73
2022/07/18 11:05:51;;;;;;;2.95;1.70;;;;;;;30.37;39.23;100407.84;4987091;28;20529;-72
2022/07/18 11:08:20;;;;;;;2.95;1.67;;;;;;;30.38;39.36;100415.25;4984012;28;20133;-72
2022/07/18 11:10:49;;;;;;;3.90;2.00;;;;;;;30.44;39.15;100425.09;4989997;28;20447;-73
2022/07/18 11:13:31;;;;;;;2.72;1.60;;;;;;;30.43;39.78;100411.94;4999156;28;20051;-73
2022/07/18 11:16:08;;;;;;;6.00;2.00;;;;;;;30.21;39.05;100375.84;4980318;28;20102;-72
2022/07/18 11:18:44;;;;;;;3.83;1.98;;;;;;;30.36;39.02;100405.38;4973394;28;20101;-71
2022/07/18 11:21:28;;;;;;;4.97;2.03;;;;;;;30.65;38.25;100406.03;4980774;28;20054;-72
2022/07/18 11:24:08;;;;;;;4.13;1.80;;;;;;;30.51;38.74;100398.31;4985163;28;20047;-72
2022/07/18 11:26:37;;;;;;;7.20;2.13;;;;;;;30.31;38.56;100372.06;4982073;28;20062;-71
2022/07/18 11:29:06;;;;;;;9.63;3.13;;;;;;;30.56;38.12;100359.56;4984500;28;20125;-72
2022/07/18 11:31:43;;;;;;;3.58;2.92;;;;;;;31.14;38.31;100392.50;4979256;28;20050;-71